sensor_id;sensor_type;location;lat;lon;timestamp;P1;durP1;ratioP1;P2;durP2;ratioP2
22240;SDS011;11289;52.524;13.694;2023-07-08T00:00:20;8.70;;;5.22;;
22240;SDS011;11289;52.524;13.694;2023-07-08T00:02:47;6.25;;;5.43;;
22240;SDS011;11289;52.524;13.694;2023-07-08T00:05:14;8.02;;;5.50;;
22240;SDS011;11289;52.524;13.694;2023-07-08T00:07:41;8.70;;;5.00;;
22240;SDS011;11289;52.524;13.694;2023-07-08T00:10:12;5.25;;;4.63;;
22240;SDS011;11289;52.524;13.694;2023-07-08T00:12:40;7.03;;;5.70;;
22240;SDS011;11289;52.524;13.694;2023-07-08T00:15:07;8.80;;;5.38;;
22240;SDS011;11289;52.524;13.694;2023-07-08T00:17:33;7.80;;;6.28;;
22240;SDS011;11289;52.524;13.694;2023-07-08T00:19:59;8.52;;;6.47;;
22240;SDS011;11289;52.524;13.694;2023-07-08T00:22:25;7.70;;;6.28;;
22240;SDS011;11289;52.524;13.694;2023-07-08T00:24:51;6.15;;;5.55;;
22240;SDS011;11289;52.524;13.694;2023-07-08T00:27:17;9.82;;;5.72;;
22240;SDS011;11289;52.524;13.694;2023-07-08T00:29:43;7.53;;;5.45;;
22240;SDS011;11289;52.524;13.694;2023-07-08T00:32:13;7.25;;;5.35;;
22240;SDS011;11289;52.524;13.694;2023-07-08T00:34:40;8.32;;;6.22;;
22240;SDS011;11289;52.524;13.694;2023-07-08T00:37:09;8.43;;;5.55;;
22240;SDS011;11289;52.524;13.694;2023-07-08T00:39:36;6.32;;;5.28;;
22240;SDS011;11289;52.524;13.694;2023-07-08T00:42:06;9.45;;;5.93;;
22240;SDS011;11289;52.524;13.694;2023-07-08T00:44:40;6.72;;;5.38;;
22240;SDS011;11289;52.524;13.694;2023-07-08T00:47:10;5.95;;;4.97;;
22240;SDS011;11289;52.524;13.694;2023-07-08T00:49:40;6.07;;;5.23;;
22240;SDS011;11289;52.524;13.694;2023-07-08T00:52:21;6.40;;;4.88;;
22240;SDS011;11289;52.524;13.694;2023-07-08T00:54:49;8.75;;;5.70;;
22240;SDS011;11289;52.524;13.694;2023-07-08T00:57:17;7.55;;;5.38;;
22240;SDS011;11289;52.524;13.694;2023-07-08T00:59:46;6.50;;;5.35;;
22240;SDS011;11289;52.524;13.694;2023-07-08T01:02:19;8.52;;;5.68;;
22240;SDS011;11289;52.524;13.694;2023-07-08T01:07:36;7.65;;;5.55;;
22240;SDS011;11289;52.524;13.694;2023-07-08T01:10:05;7.40;;;5.78;;
22240;SDS011;11289;52.524;13.694;2023-07-08T01:12:42;14.95;;;5.90;;
22240;SDS011;11289;52.524;13.694;2023-07-08T01:15:11;9.55;;;5.80;;
22240;SDS011;11289;52.524;13.694;2023-07-08T01:17:41;6.10;;;5.22;;
22240;SDS011;11289;52.524;13.694;2023-07-08T01:20:08;5.80;;;5.20;;
22240;SDS011;11289;52.524;13.694;2023-07-08T01:22:41;9.18;;;4.88;;
22240;SDS011;11289;52.524;13.694;2023-07-08T01:25:08;6.03;;;5.00;;
22240;SDS011;11289;52.524;13.694;2023-07-08T01:27:37;7.43;;;5.60;;
22240;SDS011;11289;52.524;13.694;2023-07-08T01:30:05;7.00;;;5.07;;
22240;SDS011;11289;52.524;13.694;2023-07-08T01:32:36;6.00;;;5.00;;
22240;SDS011;11289;52.524;13.694;2023-07-08T01:35:05;7.47;;;4.97;;
22240;SDS011;11289;52.524;13.694;2023-07-08T01:37:47;5.88;;;4.68;;
22240;SDS011;11289;52.524;13.694;2023-07-08T01:42:57;6.80;;;4.65;;
22240;SDS011;11289;52.524;13.694;2023-07-08T01:45:25;8.85;;;5.10;;
22240;SDS011;11289;52.524;13.694;2023-07-08T01:47:53;7.18;;;4.90;;
22240;SDS011;11289;52.524;13.694;2023-07-08T01:50:22;6.13;;;4.90;;
22240;SDS011;11289;52.524;13.694;2023-07-08T01:52:50;5.70;;;4.85;;
22240;SDS011;11289;52.524;13.694;2023-07-08T01:55:21;6.60;;;5.05;;
22240;SDS011;11289;52.524;13.694;2023-07-08T01:57:50;6.18;;;4.80;;
22240;SDS011;11289;52.524;13.694;2023-07-08T02:00:18;9.32;;;5.28;;
22240;SDS011;11289;52.524;13.694;2023-07-08T02:02:45;5.97;;;4.28;;
22240;SDS011;11289;52.524;13.694;2023-07-08T02:05:11;6.60;;;4.55;;
22240;SDS011;11289;52.524;13.694;2023-07-08T02:07:37;9.18;;;5.05;;
22240;SDS011;11289;52.524;13.694;2023-07-08T02:10:03;5.43;;;4.70;;
22240;SDS011;11289;52.524;13.694;2023-07-08T02:12:30;8.35;;;4.60;;
22240;SDS011;11289;52.524;13.694;2023-07-08T02:14:56;6.70;;;4.82;;
22240;SDS011;11289;52.524;13.694;2023-07-08T02:17:22;6.38;;;4.53;;
22240;SDS011;11289;52.524;13.694;2023-07-08T02:19:48;5.38;;;4.45;;
22240;SDS011;11289;52.524;13.694;2023-07-08T02:22:14;6.88;;;5.10;;
22240;SDS011;11289;52.524;13.694;2023-07-08T02:24:40;6.80;;;5.03;;
22240;SDS011;11289;52.524;13.694;2023-07-08T02:27:06;6.68;;;4.82;;
22240;SDS011;11289;52.524;13.694;2023-07-08T02:29:32;6.80;;;4.82;;
22240;SDS011;11289;52.524;13.694;2023-07-08T02:31:57;5.90;;;5.03;;
22240;SDS011;11289;52.524;13.694;2023-07-08T02:34:23;5.55;;;4.43;;
22240;SDS011;11289;52.524;13.694;2023-07-08T02:36:49;6.75;;;5.43;;
22240;SDS011;11289;52.524;13.694;2023-07-08T02:39:15;5.40;;;4.90;;
22240;SDS011;11289;52.524;13.694;2023-07-08T02:41:41;6.78;;;4.70;;
22240;SDS011;11289;52.524;13.694;2023-07-08T02:44:07;5.13;;;4.35;;
22240;SDS011;11289;52.524;13.694;2023-07-08T02:46:33;5.35;;;4.85;;
22240;SDS011;11289;52.524;13.694;2023-07-08T02:48:59;10.70;;;5.10;;
22240;SDS011;11289;52.524;13.694;2023-07-08T02:51:25;8.80;;;5.10;;
22240;SDS011;11289;52.524;13.694;2023-07-08T02:53:51;5.53;;;4.97;;
22240;SDS011;11289;52.524;13.694;2023-07-08T02:56:17;8.68;;;4.57;;
22240;SDS011;11289;52.524;13.694;2023-07-08T02:58:43;5.85;;;5.10;;
22240;SDS011;11289;52.524;13.694;2023-07-08T03:01:09;9.43;;;5.07;;
22240;SDS011;11289;52.524;13.694;2023-07-08T03:03:35;7.05;;;4.40;;
22240;SDS011;11289;52.524;13.694;2023-07-08T03:06:02;6.95;;;4.43;;
22240;SDS011;11289;52.524;13.694;2023-07-08T03:08:31;6.47;;;5.18;;
22240;SDS011;11289;52.524;13.694;2023-07-08T03:10:58;7.20;;;5.15;;
22240;SDS011;11289;52.524;13.694;2023-07-08T03:13:26;5.82;;;4.95;;
22240;SDS011;11289;52.524;13.694;2023-07-08T03:15:52;7.75;;;4.82;;
22240;SDS011;11289;52.524;13.694;2023-07-08T03:18:20;6.50;;;4.43;;
22240;SDS011;11289;52.524;13.694;2023-07-08T03:20:48;5.25;;;4.13;;
22240;SDS011;11289;52.524;13.694;2023-07-08T03:23:15;7.70;;;5.45;;
22240;SDS011;11289;52.524;13.694;2023-07-08T03:25:41;6.55;;;5.95;;
22240;SDS011;11289;52.524;13.694;2023-07-08T03:28:08;7.95;;;5.57;;
22240;SDS011;11289;52.524;13.694;2023-07-08T03:30:40;5.30;;;4.75;;
22240;SDS011;11289;52.524;13.694;2023-07-08T03:33:07;7.07;;;5.07;;
22240;SDS011;11289;52.524;13.694;2023-07-08T03:35:34;5.72;;;4.50;;
22240;SDS011;11289;52.524;13.694;2023-07-08T03:38:01;5.60;;;4.82;;
22240;SDS011;11289;52.524;13.694;2023-07-08T03:40:27;5.00;;;4.53;;
22240;SDS011;11289;52.524;13.694;2023-07-08T03:42:53;5.18;;;3.97;;
22240;SDS011;11289;52.524;13.694;2023-07-08T03:45:19;5.20;;;4.70;;
22240;SDS011;11289;52.524;13.694;2023-07-08T03:47:45;4.90;;;4.40;;
22240;SDS011;11289;52.524;13.694;2023-07-08T03:50:15;5.07;;;4.57;;
22240;SDS011;11289;52.524;13.694;2023-07-08T03:52:44;6.63;;;4.72;;
22240;SDS011;11289;52.524;13.694;2023-07-08T03:55:11;6.10;;;4.35;;
22240;SDS011;11289;52.524;13.694;2023-07-08T03:57:37;7.00;;;4.50;;
22240;SDS011;11289;52.524;13.694;2023-07-08T04:00:04;6.88;;;4.43;;
22240;SDS011;11289;52.524;13.694;2023-07-08T04:02:34;7.05;;;4.80;;
22240;SDS011;11289;52.524;13.694;2023-07-08T04:05:01;7.00;;;5.32;;
22240;SDS011;11289;52.524;13.694;2023-07-08T04:07:29;9.07;;;5.85;;
22240;SDS011;11289;52.524;13.694;2023-07-08T04:09:54;7.15;;;5.00;;
22240;SDS011;11289;52.524;13.694;2023-07-08T04:12:21;7.75;;;4.88;;
22240;SDS011;11289;52.524;13.694;2023-07-08T04:14:47;6.97;;;4.75;;
22240;SDS011;11289;52.524;13.694;2023-07-08T04:17:13;6.20;;;5.25;;
22240;SDS011;11289;52.524;13.694;2023-07-08T04:19:39;5.88;;;5.13;;
22240;SDS011;11289;52.524;13.694;2023-07-08T04:22:08;7.75;;;5.07;;
22240;SDS011;11289;52.524;13.694;2023-07-08T04:24:34;6.28;;;4.72;;
22240;SDS011;11289;52.524;13.694;2023-07-08T04:27:00;4.97;;;4.47;;
22240;SDS011;11289;52.524;13.694;2023-07-08T04:29:26;5.68;;;5.07;;
22240;SDS011;11289;52.524;13.694;2023-07-08T04:31:52;5.85;;;5.10;;
22240;SDS011;11289;52.524;13.694;2023-07-08T04:34:18;7.50;;;5.30;;
22240;SDS011;11289;52.524;13.694;2023-07-08T04:36:45;8.45;;;5.00;;
22240;SDS011;11289;52.524;13.694;2023-07-08T04:39:11;6.18;;;4.88;;
22240;SDS011;11289;52.524;13.694;2023-07-08T04:41:39;6.32;;;5.03;;
22240;SDS011;11289;52.524;13.694;2023-07-08T04:44:07;5.82;;;4.80;;
22240;SDS011;11289;52.524;13.694;2023-07-08T04:46:35;6.70;;;5.13;;
22240;SDS011;11289;52.524;13.694;2023-07-08T04:49:05;7.15;;;5.25;;
22240;SDS011;11289;52.524;13.694;2023-07-08T04:51:32;6.35;;;4.82;;
22240;SDS011;11289;52.524;13.694;2023-07-08T04:53:58;5.55;;;5.00;;
22240;SDS011;11289;52.524;13.694;2023-07-08T04:56:25;5.47;;;4.53;;
22240;SDS011;11289;52.524;13.694;2023-07-08T04:59:01;8.68;;;5.18;;
22240;SDS011;11289;52.524;13.694;2023-07-08T05:01:27;5.72;;;4.65;;
22240;SDS011;11289;52.524;13.694;2023-07-08T05:03:53;5.40;;;4.63;;
22240;SDS011;11289;52.524;13.694;2023-07-08T05:06:19;5.70;;;5.10;;
22240;SDS011;11289;52.524;13.694;2023-07-08T05:08:45;5.65;;;4.90;;
22240;SDS011;11289;52.524;13.694;2023-07-08T05:11:11;5.53;;;4.93;;
22240;SDS011;11289;52.524;13.694;2023-07-08T05:13:37;6.22;;;4.60;;
22240;SDS011;11289;52.524;13.694;2023-07-08T05:16:03;6.45;;;5.18;;
22240;SDS011;11289;52.524;13.694;2023-07-08T05:18:29;7.10;;;5.50;;
22240;SDS011;11289;52.524;13.694;2023-07-08T05:20:56;6.75;;;4.30;;
22240;SDS011;11289;52.524;13.694;2023-07-08T05:23:22;7.43;;;4.97;;
22240;SDS011;11289;52.524;13.694;2023-07-08T05:25:48;7.60;;;4.72;;
22240;SDS011;11289;52.524;13.694;2023-07-08T05:28:14;6.72;;;4.90;;
22240;SDS011;11289;52.524;13.694;2023-07-08T05:30:40;6.63;;;4.13;;
22240;SDS011;11289;52.524;13.694;2023-07-08T05:33:07;7.78;;;5.07;;
22240;SDS011;11289;52.524;13.694;2023-07-08T05:35:33;9.48;;;5.10;;
22240;SDS011;11289;52.524;13.694;2023-07-08T05:38:00;7.10;;;4.28;;
22240;SDS011;11289;52.524;13.694;2023-07-08T05:40:27;7.93;;;5.32;;
22240;SDS011;11289;52.524;13.694;2023-07-08T05:42:53;6.10;;;4.85;;
22240;SDS011;11289;52.524;13.694;2023-07-08T05:45:19;9.45;;;5.13;;
22240;SDS011;11289;52.524;13.694;2023-07-08T05:47:45;8.80;;;4.57;;
22240;SDS011;11289;52.524;13.694;2023-07-08T05:50:11;7.82;;;5.20;;
22240;SDS011;11289;52.524;13.694;2023-07-08T05:52:37;5.10;;;4.53;;
22240;SDS011;11289;52.524;13.694;2023-07-08T05:55:03;6.95;;;5.00;;
22240;SDS011;11289;52.524;13.694;2023-07-08T05:57:30;6.05;;;4.75;;
22240;SDS011;11289;52.524;13.694;2023-07-08T05:59:55;6.85;;;4.72;;
22240;SDS011;11289;52.524;13.694;2023-07-08T06:02:21;6.35;;;4.72;;
22240;SDS011;11289;52.524;13.694;2023-07-08T06:04:51;5.20;;;4.70;;
22240;SDS011;11289;52.524;13.694;2023-07-08T06:07:17;6.68;;;4.68;;
22240;SDS011;11289;52.524;13.694;2023-07-08T06:09:43;6.20;;;4.32;;
22240;SDS011;11289;52.524;13.694;2023-07-08T06:12:10;5.38;;;4.45;;
22240;SDS011;11289;52.524;13.694;2023-07-08T06:14:36;4.95;;;4.03;;
22240;SDS011;11289;52.524;13.694;2023-07-08T06:17:03;5.55;;;4.20;;
22240;SDS011;11289;52.524;13.694;2023-07-08T06:19:29;5.32;;;4.82;;
22240;SDS011;11289;52.524;13.694;2023-07-08T06:21:55;6.43;;;4.38;;
22240;SDS011;11289;52.524;13.694;2023-07-08T06:24:21;9.32;;;4.50;;
22240;SDS011;11289;52.524;13.694;2023-07-08T06:26:47;5.78;;;4.30;;
22240;SDS011;11289;52.524;13.694;2023-07-08T06:29:13;6.82;;;4.65;;
22240;SDS011;11289;52.524;13.694;2023-07-08T06:31:39;8.60;;;4.93;;
22240;SDS011;11289;52.524;13.694;2023-07-08T06:34:05;5.18;;;4.38;;
22240;SDS011;11289;52.524;13.694;2023-07-08T06:36:31;5.03;;;4.50;;
22240;SDS011;11289;52.524;13.694;2023-07-08T06:38:57;5.40;;;3.70;;
22240;SDS011;11289;52.524;13.694;2023-07-08T06:41:23;7.05;;;4.25;;
22240;SDS011;11289;52.524;13.694;2023-07-08T06:43:49;8.30;;;3.80;;
22240;SDS011;11289;52.524;13.694;2023-07-08T06:46:15;6.45;;;5.25;;
22240;SDS011;11289;52.524;13.694;2023-07-08T06:48:42;5.45;;;3.95;;
22240;SDS011;11289;52.524;13.694;2023-07-08T06:51:08;6.00;;;4.22;;
22240;SDS011;11289;52.524;13.694;2023-07-08T06:53:34;3.33;;;2.97;;
22240;SDS011;11289;52.524;13.694;2023-07-08T06:56:00;6.05;;;4.20;;
22240;SDS011;11289;52.524;13.694;2023-07-08T06:58:27;6.55;;;4.20;;
22240;SDS011;11289;52.524;13.694;2023-07-08T07:00:53;5.38;;;4.07;;
22240;SDS011;11289;52.524;13.694;2023-07-08T07:03:19;5.00;;;3.40;;
22240;SDS011;11289;52.524;13.694;2023-07-08T07:05:45;5.95;;;3.53;;
22240;SDS011;11289;52.524;13.694;2023-07-08T07:08:11;6.55;;;3.58;;
22240;SDS011;11289;52.524;13.694;2023-07-08T07:10:37;3.47;;;3.17;;
22240;SDS011;11289;52.524;13.694;2023-07-08T07:13:03;4.30;;;3.13;;
22240;SDS011;11289;52.524;13.694;2023-07-08T07:15:29;4.07;;;2.92;;
22240;SDS011;11289;52.524;13.694;2023-07-08T07:17:56;8.40;;;4.32;;
22240;SDS011;11289;52.524;13.694;2023-07-08T07:20:22;3.75;;;3.03;;
22240;SDS011;11289;52.524;13.694;2023-07-08T07:22:48;5.05;;;3.15;;
22240;SDS011;11289;52.524;13.694;2023-07-08T07:25:15;8.10;;;2.88;;
22240;SDS011;11289;52.524;13.694;2023-07-08T07:27:41;4.00;;;3.10;;
22240;SDS011;11289;52.524;13.694;2023-07-08T07:30:07;3.65;;;2.88;;
22240;SDS011;11289;52.524;13.694;2023-07-08T07:32:33;5.13;;;3.05;;
22240;SDS011;11289;52.524;13.694;2023-07-08T07:35:00;3.78;;;2.47;;
22240;SDS011;11289;52.524;13.694;2023-07-08T07:37:26;5.82;;;3.20;;
22240;SDS011;11289;52.524;13.694;2023-07-08T07:39:52;5.50;;;3.25;;
22240;SDS011;11289;52.524;13.694;2023-07-08T07:42:19;3.47;;;2.85;;
22240;SDS011;11289;52.524;13.694;2023-07-08T07:44:45;6.47;;;3.10;;
22240;SDS011;11289;52.524;13.694;2023-07-08T07:47:11;6.63;;;3.10;;
22240;SDS011;11289;52.524;13.694;2023-07-08T07:49:45;5.53;;;3.47;;
22240;SDS011;11289;52.524;13.694;2023-07-08T07:52:11;4.28;;;3.35;;
22240;SDS011;11289;52.524;13.694;2023-07-08T07:54:38;4.47;;;2.80;;
22240;SDS011;11289;52.524;13.694;2023-07-08T07:57:05;6.13;;;3.13;;
22240;SDS011;11289;52.524;13.694;2023-07-08T07:59:31;6.05;;;3.65;;
22240;SDS011;11289;52.524;13.694;2023-07-08T08:01:57;3.88;;;2.92;;
22240;SDS011;11289;52.524;13.694;2023-07-08T08:04:23;3.75;;;2.92;;
22240;SDS011;11289;52.524;13.694;2023-07-08T08:06:49;6.50;;;3.45;;
22240;SDS011;11289;52.524;13.694;2023-07-08T08:09:16;5.70;;;3.20;;
22240;SDS011;11289;52.524;13.694;2023-07-08T08:11:42;4.72;;;3.50;;
22240;SDS011;11289;52.524;13.694;2023-07-08T08:14:08;3.95;;;2.92;;
22240;SDS011;11289;52.524;13.694;2023-07-08T08:16:34;6.85;;;3.45;;
22240;SDS011;11289;52.524;13.694;2023-07-08T08:19:00;3.83;;;2.90;;
22240;SDS011;11289;52.524;13.694;2023-07-08T08:21:27;3.92;;;2.70;;
22240;SDS011;11289;52.524;13.694;2023-07-08T08:23:53;4.47;;;2.53;;
22240;SDS011;11289;52.524;13.694;2023-07-08T08:26:19;4.70;;;2.70;;
22240;SDS011;11289;52.524;13.694;2023-07-08T08:28:45;5.00;;;3.00;;
22240;SDS011;11289;52.524;13.694;2023-07-08T08:31:11;2.45;;;2.10;;
22240;SDS011;11289;52.524;13.694;2023-07-08T08:33:37;7.30;;;2.97;;
22240;SDS011;11289;52.524;13.694;2023-07-08T08:36:03;3.35;;;2.10;;
22240;SDS011;11289;52.524;13.694;2023-07-08T08:38:29;3.53;;;2.38;;
22240;SDS011;11289;52.524;13.694;2023-07-08T08:40:56;3.97;;;2.28;;
22240;SDS011;11289;52.524;13.694;2023-07-08T08:43:23;4.95;;;2.70;;
22240;SDS011;11289;52.524;13.694;2023-07-08T08:46:02;4.30;;;2.20;;
22240;SDS011;11289;52.524;13.694;2023-07-08T08:48:41;3.03;;;2.45;;
22240;SDS011;11289;52.524;13.694;2023-07-08T08:51:21;7.75;;;2.40;;
22240;SDS011;11289;52.524;13.694;2023-07-08T08:53:52;15.45;;;3.15;;
22240;SDS011;11289;52.524;13.694;2023-07-08T08:56:26;3.55;;;1.90;;
22240;SDS011;11289;52.524;13.694;2023-07-08T09:01:53;3.17;;;2.08;;
22240;SDS011;11289;52.524;13.694;2023-07-08T09:04:21;3.20;;;2.08;;
22240;SDS011;11289;52.524;13.694;2023-07-08T09:06:52;5.80;;;2.08;;
22240;SDS011;11289;52.524;13.694;2023-07-08T09:09:35;3.60;;;2.22;;
22240;SDS011;11289;52.524;13.694;2023-07-08T09:12:16;3.55;;;2.47;;
22240;SDS011;11289;52.524;13.694;2023-07-08T09:14:47;3.53;;;1.98;;
22240;SDS011;11289;52.524;13.694;2023-07-08T09:22:33;2.65;;;1.83;;
22240;SDS011;11289;52.524;13.694;2023-07-08T09:25:30;6.33;;;2.10;;
22240;SDS011;11289;52.524;13.694;2023-07-08T09:28:00;3.72;;;1.88;;
22240;SDS011;11289;52.524;13.694;2023-07-08T09:30:26;3.13;;;2.10;;
22240;SDS011;11289;52.524;13.694;2023-07-08T09:32:54;5.80;;;1.75;;
22240;SDS011;11289;52.524;13.694;2023-07-08T09:35:28;5.07;;;2.20;;
22240;SDS011;11289;52.524;13.694;2023-07-08T09:38:07;7.43;;;2.13;;
22240;SDS011;11289;52.524;13.694;2023-07-08T09:40:35;3.73;;;1.57;;
22240;SDS011;11289;52.524;13.694;2023-07-08T09:43:24;2.38;;;1.58;;
22240;SDS011;11289;52.524;13.694;2023-07-08T09:45:55;2.92;;;1.77;;
22240;SDS011;11289;52.524;13.694;2023-07-08T09:48:25;2.80;;;1.80;;
22240;SDS011;11289;52.524;13.694;2023-07-08T09:50:54;5.05;;;1.67;;
22240;SDS011;11289;52.524;13.694;2023-07-08T09:53:21;3.15;;;1.98;;
22240;SDS011;11289;52.524;13.694;2023-07-08T09:55:48;5.38;;;1.55;;
22240;SDS011;11289;52.524;13.694;2023-07-08T09:58:23;1.70;;;1.60;;
22240;SDS011;11289;52.524;13.694;2023-07-08T10:00:53;2.92;;;1.70;;
22240;SDS011;11289;52.524;13.694;2023-07-08T10:03:30;2.25;;;1.80;;
22240;SDS011;11289;52.524;13.694;2023-07-08T10:06:02;2.65;;;1.63;;
22240;SDS011;11289;52.524;13.694;2023-07-08T10:08:37;3.88;;;1.80;;
22240;SDS011;11289;52.524;13.694;2023-07-08T10:11:28;3.35;;;1.65;;
22240;SDS011;11289;52.524;13.694;2023-07-08T10:16:57;3.20;;;1.70;;
22240;SDS011;11289;52.524;13.694;2023-07-08T10:19:23;2.95;;;1.77;;
22240;SDS011;11289;52.524;13.694;2023-07-08T10:24:50;3.67;;;1.70;;
22240;SDS011;11289;52.524;13.694;2023-07-08T10:30:23;5.43;;;1.60;;
22240;SDS011;11289;52.524;13.694;2023-07-08T10:33:13;2.17;;;1.63;;
22240;SDS011;11289;52.524;13.694;2023-07-08T10:36:21;4.27;;;1.70;;
22240;SDS011;11289;52.524;13.694;2023-07-08T10:39:13;2.13;;;1.52;;
22240;SDS011;11289;52.524;13.694;2023-07-08T10:44:58;2.53;;;1.60;;
22240;SDS011;11289;52.524;13.694;2023-07-08T10:47:43;3.47;;;1.60;;
22240;SDS011;11289;52.524;13.694;2023-07-08T10:55:30;4.72;;;1.75;;
22240;SDS011;11289;52.524;13.694;2023-07-08T10:58:16;2.28;;;1.50;;
22240;SDS011;11289;52.524;13.694;2023-07-08T11:01:04;2.10;;;1.50;;
22240;SDS011;11289;52.524;13.694;2023-07-08T11:06:56;4.05;;;1.50;;
22240;SDS011;11289;52.524;13.694;2023-07-08T11:10:00;3.10;;;1.23;;
22240;SDS011;11289;52.524;13.694;2023-07-08T11:12:37;2.28;;;1.80;;
22240;SDS011;11289;52.524;13.694;2023-07-08T11:15:15;3.25;;;1.65;;
22240;SDS011;11289;52.524;13.694;2023-07-08T11:20:44;2.08;;;1.50;;
22240;SDS011;11289;52.524;13.694;2023-07-08T11:23:42;2.33;;;1.50;;
22240;SDS011;11289;52.524;13.694;2023-07-08T11:26:26;2.00;;;1.60;;
22240;SDS011;11289;52.524;13.694;2023-07-08T11:28:59;2.90;;;1.60;;
22240;SDS011;11289;52.524;13.694;2023-07-08T11:31:29;2.60;;;1.73;;
22240;SDS011;11289;52.524;13.694;2023-07-08T11:33:58;3.22;;;1.63;;
22240;SDS011;11289;52.524;13.694;2023-07-08T11:36:26;4.47;;;1.73;;
22240;SDS011;11289;52.524;13.694;2023-07-08T11:38:54;2.10;;;1.73;;
22240;SDS011;11289;52.524;13.694;2023-07-08T11:41:22;2.00;;;1.45;;
22240;SDS011;11289;52.524;13.694;2023-07-08T11:43:52;3.67;;;1.50;;
22240;SDS011;11289;52.524;13.694;2023-07-08T11:46:23;3.00;;;2.15;;
22240;SDS011;11289;52.524;13.694;2023-07-08T11:48:51;4.65;;;2.03;;
22240;SDS011;11289;52.524;13.694;2023-07-08T11:51:22;3.78;;;1.70;;
22240;SDS011;11289;52.524;13.694;2023-07-08T11:53:58;2.10;;;1.90;;
22240;SDS011;11289;52.524;13.694;2023-07-08T11:56:49;2.50;;;1.60;;
22240;SDS011;11289;52.524;13.694;2023-07-08T11:59:23;2.53;;;1.75;;
22240;SDS011;11289;52.524;13.694;2023-07-08T12:04:28;1.92;;;1.40;;
22240;SDS011;11289;52.524;13.694;2023-07-08T12:07:03;3.92;;;2.08;;
22240;SDS011;11289;52.524;13.694;2023-07-08T12:09:38;4.53;;;2.00;;
22240;SDS011;11289;52.524;13.694;2023-07-08T12:12:14;3.33;;;1.55;;
22240;SDS011;11289;52.524;13.694;2023-07-08T12:14:45;2.80;;;1.65;;
22240;SDS011;11289;52.524;13.694;2023-07-08T12:17:12;2.20;;;1.67;;
22240;SDS011;11289;52.524;13.694;2023-07-08T12:19:40;4.05;;;1.83;;
22240;SDS011;11289;52.524;13.694;2023-07-08T12:22:12;2.80;;;1.70;;
22240;SDS011;11289;52.524;13.694;2023-07-08T12:24:39;3.88;;;1.83;;
22240;SDS011;11289;52.524;13.694;2023-07-08T12:27:08;3.80;;;1.90;;
22240;SDS011;11289;52.524;13.694;2023-07-08T12:29:34;3.35;;;1.70;;
22240;SDS011;11289;52.524;13.694;2023-07-08T12:32:01;4.70;;;1.88;;
22240;SDS011;11289;52.524;13.694;2023-07-08T12:34:28;3.08;;;2.08;;
22240;SDS011;11289;52.524;13.694;2023-07-08T12:36:55;2.22;;;1.92;;
22240;SDS011;11289;52.524;13.694;2023-07-08T12:39:21;3.67;;;2.13;;
22240;SDS011;11289;52.524;13.694;2023-07-08T12:41:47;3.70;;;2.15;;
22240;SDS011;11289;52.524;13.694;2023-07-08T12:44:15;2.88;;;2.05;;
22240;SDS011;11289;52.524;13.694;2023-07-08T12:46:47;4.03;;;2.30;;
22240;SDS011;11289;52.524;13.694;2023-07-08T12:49:15;3.83;;;2.22;;
22240;SDS011;11289;52.524;13.694;2023-07-08T12:51:43;2.00;;;1.70;;
22240;SDS011;11289;52.524;13.694;2023-07-08T12:54:11;2.40;;;1.70;;
22240;SDS011;11289;52.524;13.694;2023-07-08T12:56:38;2.95;;;1.70;;
22240;SDS011;11289;52.524;13.694;2023-07-08T12:59:12;4.22;;;1.83;;
22240;SDS011;11289;52.524;13.694;2023-07-08T13:01:44;3.22;;;2.08;;
22240;SDS011;11289;52.524;13.694;2023-07-08T13:04:13;3.95;;;1.83;;
22240;SDS011;11289;52.524;13.694;2023-07-08T13:06:39;2.70;;;2.13;;
22240;SDS011;11289;52.524;13.694;2023-07-08T13:09:21;2.55;;;1.90;;
22240;SDS011;11289;52.524;13.694;2023-07-08T13:11:55;3.85;;;2.10;;
22240;SDS011;11289;52.524;13.694;2023-07-08T13:14:23;3.28;;;1.95;;
22240;SDS011;11289;52.524;13.694;2023-07-08T13:16:50;3.80;;;1.92;;
22240;SDS011;11289;52.524;13.694;2023-07-08T13:19:17;3.47;;;1.90;;
22240;SDS011;11289;52.524;13.694;2023-07-08T13:21:44;2.53;;;1.70;;
22240;SDS011;11289;52.524;13.694;2023-07-08T13:24:11;5.35;;;2.20;;
22240;SDS011;11289;52.524;13.694;2023-07-08T13:26:44;4.43;;;2.33;;
22240;SDS011;11289;52.524;13.694;2023-07-08T13:29:21;3.28;;;1.92;;
22240;SDS011;11289;52.524;13.694;2023-07-08T13:32:05;4.78;;;1.98;;
22240;SDS011;11289;52.524;13.694;2023-07-08T13:34:32;4.35;;;1.98;;
22240;SDS011;11289;52.524;13.694;2023-07-08T13:37:00;4.35;;;2.00;;
22240;SDS011;11289;52.524;13.694;2023-07-08T13:39:27;4.38;;;2.40;;
22240;SDS011;11289;52.524;13.694;2023-07-08T13:41:58;4.32;;;2.30;;
22240;SDS011;11289;52.524;13.694;2023-07-08T13:44:26;3.13;;;2.33;;
22240;SDS011;11289;52.524;13.694;2023-07-08T13:46:53;3.47;;;2.05;;
22240;SDS011;11289;52.524;13.694;2023-07-08T13:49:25;3.13;;;2.28;;
22240;SDS011;11289;52.524;13.694;2023-07-08T13:52:08;3.08;;;2.55;;
22240;SDS011;11289;52.524;13.694;2023-07-08T13:54:47;3.25;;;2.17;;
22240;SDS011;11289;52.524;13.694;2023-07-08T13:57:17;3.13;;;1.95;;
22240;SDS011;11289;52.524;13.694;2023-07-08T13:59:44;4.03;;;2.10;;
22240;SDS011;11289;52.524;13.694;2023-07-08T14:02:23;4.00;;;1.80;;
22240;SDS011;11289;52.524;13.694;2023-07-08T14:04:54;4.32;;;2.40;;
22240;SDS011;11289;52.524;13.694;2023-07-08T14:07:21;2.50;;;1.83;;
22240;SDS011;11289;52.524;13.694;2023-07-08T14:09:55;3.15;;;2.42;;
22240;SDS011;11289;52.524;13.694;2023-07-08T14:12:22;3.42;;;2.20;;
22240;SDS011;11289;52.524;13.694;2023-07-08T14:14:48;4.28;;;2.17;;
22240;SDS011;11289;52.524;13.694;2023-07-08T14:17:21;5.25;;;2.00;;
22240;SDS011;11289;52.524;13.694;2023-07-08T14:19:49;3.70;;;2.10;;
22240;SDS011;11289;52.524;13.694;2023-07-08T14:22:20;3.28;;;2.38;;
22240;SDS011;11289;52.524;13.694;2023-07-08T14:24:47;3.80;;;1.98;;
22240;SDS011;11289;52.524;13.694;2023-07-08T14:27:13;4.15;;;2.38;;
22240;SDS011;11289;52.524;13.694;2023-07-08T14:29:42;6.65;;;2.03;;
22240;SDS011;11289;52.524;13.694;2023-07-08T14:32:15;11.45;;;3.25;;
22240;SDS011;11289;52.524;13.694;2023-07-08T14:34:47;4.15;;;2.80;;
22240;SDS011;11289;52.524;13.694;2023-07-08T14:37:17;3.13;;;2.33;;
22240;SDS011;11289;52.524;13.694;2023-07-08T14:39:43;3.80;;;2.40;;
22240;SDS011;11289;52.524;13.694;2023-07-08T14:42:11;2.90;;;1.98;;
22240;SDS011;11289;52.524;13.694;2023-07-08T14:44:39;3.65;;;2.28;;
22240;SDS011;11289;52.524;13.694;2023-07-08T14:47:08;4.47;;;2.30;;
22240;SDS011;11289;52.524;13.694;2023-07-08T14:49:36;3.20;;;1.95;;
22240;SDS011;11289;52.524;13.694;2023-07-08T14:52:02;3.85;;;2.42;;
22240;SDS011;11289;52.524;13.694;2023-07-08T14:54:28;4.20;;;2.60;;
22240;SDS011;11289;52.524;13.694;2023-07-08T14:56:54;3.40;;;2.38;;
22240;SDS011;11289;52.524;13.694;2023-07-08T14:59:22;5.40;;;2.00;;
22240;SDS011;11289;52.524;13.694;2023-07-08T15:01:51;3.67;;;2.28;;
22240;SDS011;11289;52.524;13.694;2023-07-08T15:04:19;2.83;;;1.92;;
22240;SDS011;11289;52.524;13.694;2023-07-08T15:06:45;3.22;;;2.25;;
22240;SDS011;11289;52.524;13.694;2023-07-08T15:09:12;3.25;;;2.55;;
22240;SDS011;11289;52.524;13.694;2023-07-08T15:11:39;3.30;;;2.30;;
22240;SDS011;11289;52.524;13.694;2023-07-08T15:14:13;5.28;;;3.33;;
22240;SDS011;11289;52.524;13.694;2023-07-08T15:16:44;3.60;;;2.40;;
22240;SDS011;11289;52.524;13.694;2023-07-08T15:19:12;3.10;;;2.22;;
22240;SDS011;11289;52.524;13.694;2023-07-08T15:21:39;2.97;;;2.25;;
22240;SDS011;11289;52.524;13.694;2023-07-08T15:24:09;3.20;;;1.98;;